Time;durP1;ratioP1;P1;durP2;ratioP2;P2;SDS_P1;SDS_P2;PMS_P1;PMS_P2;Temp;Humidity;BMP_temperature;BMP_pressure;BME280_temperature;BME280_humidity;BME280_pressure;Samples;Min_cycle;Max_cycle;Signal;HPM_P1;HPM_P2
2023/08/09 00:00:38;;;;;;;0.00;0.00;;;;;;;;;;5074114;28;20079;-79
2023/08/09 00:03:04;;;;;;;0.00;0.00;;;;;;;;;;5073048;28;20163;-79
2023/08/09 00:05:30;;;;;;;0.00;0.00;;;;;;;;;;5073072;28;20049;-78
2023/08/09 00:07:56;;;;;;;0.00;0.00;;;;;;;;;;5073004;28;20040;-79
2023/08/09 00:10:22;;;;;;;0.00;0.00;;;;;;;;;;5072600;28;20078;-78
2023/08/09 00:12:49;;;;;;;0.00;0.00;;;;;;;;;;5074173;28;20048;-79
2023/08/09 00:15:16;;;;;;;0.00;0.00;;;;;;;;;;5056327;28;20129;-79
2023/08/09 00:17:42;;;;;;;0.00;0.00;;;;;;;;;;5074152;28;20402;-79
2023/08/09 00:20:08;;;;;;;0.00;0.00;;;;;;;;;;5073731;28;20050;-79
2023/08/09 00:22:35;;;;;;;0.00;0.00;;;;;;;;;;5056106;28;20044;-79
2023/08/09 00:25:01;;;;;;;0.00;0.00;;;;;;;;;;5073993;28;20067;-79
2023/08/09 00:27:28;;;;;;;0.00;0.00;;;;;;;;;;5072565;28;20054;-79
2023/08/09 00:29:54;;;;;;;0.00;0.00;;;;;;;;;;5073767;28;20048;-78
2023/08/09 00:32:20;;;;;;;0.00;0.00;;;;;;;;;;5072601;28;20044;-79
2023/08/09 00:34:46;;;;;;;0.00;0.00;;;;;;;;;;5072452;28;20054;-78
2023/08/09 00:37:12;;;;;;;0.00;0.00;;;;;;;;;;5073823;28;20125;-77
2023/08/09 00:39:38;;;;;;;0.00;0.00;;;;;;;;;;5073660;28;20063;-78
2023/08/09 00:42:04;;;;;;;0.00;0.00;;;;;;;;;;5072740;28;20060;-78
2023/08/09 00:44:30;;;;;;;0.00;0.00;;;;;;;;;;5073634;28;20408;-78
2023/08/09 00:46:56;;;;;;;0.00;0.00;;;;;;;;;;5072203;28;20051;-81
2023/08/09 00:49:22;;;;;;;0.00;0.00;;;;;;;;;;5073332;28;20044;-79
2023/08/09 00:51:48;;;;;;;0.00;0.00;;;;;;;;;;5073107;28;20340;-79
2023/08/09 00:54:14;;;;;;;0.00;0.00;;;;;;;;;;5073477;28;20051;-78
2023/08/09 00:56:41;;;;;;;0.00;0.00;;;;;;;;;;5073072;28;20550;-79
2023/08/09 00:59:07;;;;;;;0.00;0.00;;;;;;;;;;5073243;28;20422;-79
2023/08/09 01:01:33;;;;;;;0.00;0.00;;;;;;;;;;5071596;28;20052;-79
2023/08/09 01:03:59;;;;;;;0.00;0.00;;;;;;;;;;5072045;28;20045;-78
2023/08/09 01:06:37;;;;;;;0.00;0.00;;;;;;;;;;5073205;28;20117;-78
2023/08/09 01:09:22;;;;;;;0.00;0.00;;;;;;;;;;5072766;28;20506;-79
2023/08/09 01:11:56;;;;;;;0.00;0.00;;;;;;;;;;5072769;28;20045;-78
2023/08/09 01:14:23;;;;;;;0.00;0.00;;;;;;;;;;5071843;28;20436;-78
2023/08/09 01:16:52;;;;;;;0.00;0.00;;;;;;;;;;5071565;28;20048;-78
2023/08/09 01:19:26;;;;;;;0.00;0.00;;;;;;;;;;5072947;28;20036;-79
2023/08/09 01:21:54;;;;;;;0.00;0.00;;;;;;;;;;5072787;28;20041;-78
2023/08/09 01:24:20;;;;;;;0.00;0.00;;;;;;;;;;5072948;28;20040;-79
2023/08/09 01:26:47;;;;;;;0.00;0.00;;;;;;;;;;5071208;28;20043;-78
2023/08/09 01:29:13;;;;;;;0.00;0.00;;;;;;;;;;5072596;28;20037;-78
2023/08/09 01:31:39;;;;;;;0.00;0.00;;;;;;;;;;5054543;28;20044;-79
2023/08/09 01:34:06;;;;;;;0.00;0.00;;;;;;;;;;5071694;28;20040;-78
2023/08/09 01:36:33;;;;;;;0.00;0.00;;;;;;;;;;5072550;28;20071;-78
2023/08/09 01:39:06;;;;;;;0.00;0.00;;;;;;;;;;5071475;28;20390;-78
2023/08/09 01:41:32;;;;;;;0.28;0.22;;;;;;;;;;5054457;28;20044;-78
2023/08/09 01:43:58;;;;;;;0.00;0.00;;;;;;;;;;5072806;28;20044;-78
2023/08/09 01:46:25;;;;;;;0.00;0.00;;;;;;;;;;5071046;28;20032;-78
2023/08/09 01:48:51;;;;;;;0.00;0.00;;;;;;;;;;5072680;28;20037;-79
2023/08/09 01:51:17;;;;;;;0.00;0.00;;;;;;;;;;5072175;28;20522;-78
2023/08/09 01:53:44;;;;;;;0.00;0.00;;;;;;;;;;5071079;28;20045;-79
2023/08/09 01:56:10;;;;;;;0.00;0.00;;;;;;;;;;5072294;28;20052;-78
2023/08/09 01:58:37;;;;;;;0.00;0.00;;;;;;;;;;5072635;28;20128;-78
2023/08/09 02:01:03;;;;;;;0.00;0.00;;;;;;;;;;5070776;28;20048;-78
2023/08/09 02:03:28;;;;;;;0.00;0.00;;;;;;;;;;5071140;28;20067;-77
2023/08/09 02:05:55;;;;;;;0.00;0.00;;;;;;;;;;5071043;28;20037;-79
2023/08/09 02:08:21;;;;;;;0.00;0.00;;;;;;;;;;5071243;28;20124;-79
2023/08/09 02:10:47;;;;;;;0.00;0.00;;;;;;;;;;5054008;28;20088;-78
2023/08/09 02:13:13;;;;;;;0.00;0.00;;;;;;;;;;5054330;28;20094;-78
2023/08/09 02:15:39;;;;;;;0.00;0.00;;;;;;;;;;5071161;28;20071;-78
2023/08/09 02:18:05;;;;;;;0.00;0.00;;;;;;;;;;5070777;28;20087;-78
2023/08/09 02:20:32;;;;;;;0.00;0.00;;;;;;;;;;5072363;28;20048;-78
2023/08/09 02:22:58;;;;;;;0.00;0.00;;;;;;;;;;5071304;28;20049;-78
2023/08/09 02:25:24;;;;;;;0.00;0.00;;;;;;;;;;5071390;28;20049;-79
2023/08/09 02:27:50;;;;;;;0.00;0.00;;;;;;;;;;5071421;28;20051;-78
2023/08/09 02:30:16;;;;;;;0.00;0.00;;;;;;;;;;5072358;28;20033;-79
2023/08/09 02:32:42;;;;;;;0.00;0.00;;;;;;;;;;5070815;28;20041;-78
2023/08/09 02:35:10;;;;;;;0.00;0.00;;;;;;;;;;5072362;28;20384;-78
2023/08/09 02:37:36;;;;;;;0.00;0.00;;;;;;;;;;5071851;28;20553;-78
2023/08/09 02:40:02;;;;;;;0.00;0.00;;;;;;;;;;5072169;28;20048;-78
2023/08/09 02:42:28;;;;;;;0.00;0.00;;;;;;;;;;5071777;28;20499;-78
2023/08/09 02:44:54;;;;;;;0.00;0.00;;;;;;;;;;5072305;28;20040;-79
2023/08/09 02:47:20;;;;;;;0.00;0.00;;;;;;;;;;5070525;28;20044;-78
2023/08/09 02:49:46;;;;;;;0.00;0.00;;;;;;;;;;5072146;28;20451;-78
2023/08/09 02:52:12;;;;;;;0.00;0.00;;;;;;;;;;5071927;28;20037;-78
2023/08/09 02:54:38;;;;;;;0.00;0.00;;;;;;;;;;5072013;28;20131;-78
2023/08/09 02:57:04;;;;;;;0.00;0.00;;;;;;;;;;5071818;28;20128;-79
2023/08/09 02:59:30;;;;;;;0.00;0.00;;;;;;;;;;5070718;28;20475;-79
2023/08/09 03:01:56;;;;;;;0.00;0.00;;;;;;;;;;5071723;28;20044;-79
2023/08/09 03:04:22;;;;;;;0.00;0.00;;;;;;;;;;5071930;28;20429;-79
2023/08/09 03:06:48;;;;;;;0.00;0.00;;;;;;;;;;5073495;28;20069;-79
2023/08/09 03:09:14;;;;;;;0.00;0.00;;;;;;;;;;5074141;28;20036;-78
2023/08/09 03:11:40;;;;;;;0.00;0.00;;;;;;;;;;5075442;28;20127;-78
2023/08/09 03:14:07;;;;;;;0.00;0.00;;;;;;;;;;5075554;28;20072;-79
2023/08/09 03:16:33;;;;;;;0.00;0.00;;;;;;;;;;5073944;28;20044;-78
2023/08/09 03:18:59;;;;;;;0.00;0.00;;;;;;;;;;5075229;28;20128;-78
2023/08/09 03:21:26;;;;;;;0.00;0.00;;;;;;;;;;5073843;28;20110;-78
2023/08/09 03:23:52;;;;;;;0.00;0.00;;;;;;;;;;5075316;28;20048;-78
2023/08/09 03:26:19;;;;;;;0.00;0.00;;;;;;;;;;5075319;28;20079;-78
2023/08/09 03:28:45;;;;;;;0.00;0.00;;;;;;;;;;5073640;28;20072;-78
2023/08/09 03:31:11;;;;;;;0.00;0.00;;;;;;;;;;5074092;28;20033;-78
2023/08/09 03:33:37;;;;;;;0.00;0.00;;;;;;;;;;5056955;28;20486;-78
2023/08/09 03:36:04;;;;;;;0.00;0.00;;;;;;;;;;5073767;28;20131;-78
2023/08/09 03:38:29;;;;;;;0.00;0.00;;;;;;;;;;5073442;28;20045;-78
2023/08/09 03:40:55;;;;;;;0.00;0.00;;;;;;;;;;5073522;28;20387;-78
2023/08/09 03:43:21;;;;;;;0.00;0.00;;;;;;;;;;5074771;28;20117;-78
2023/08/09 03:45:47;;;;;;;0.00;0.00;;;;;;;;;;5073469;28;20424;-78
2023/08/09 03:48:13;;;;;;;0.00;0.00;;;;;;;;;;5073184;28;20045;-78
2023/08/09 03:50:39;;;;;;;0.00;0.00;;;;;;;;;;5073283;28;20052;-78
2023/08/09 03:53:05;;;;;;;0.00;0.00;;;;;;;;;;5074815;28;20041;-78
2023/08/09 03:55:31;;;;;;;0.00;0.00;;;;;;;;;;5074798;28;20040;-79
2023/08/09 03:57:57;;;;;;;0.00;0.00;;;;;;;;;;5073349;28;20046;-78
2023/08/09 04:00:26;;;;;;;0.00;0.00;;;;;;;;;;5074269;28;20037;-79
2023/08/09 04:02:52;;;;;;;0.00;0.00;;;;;;;;;;5074128;28;20135;-78
2023/08/09 04:05:19;;;;;;;0.00;0.00;;;;;;;;;;5074289;28;20060;-79
2023/08/09 04:07:45;;;;;;;0.00;0.00;;;;;;;;;;5074325;28;20036;-78
2023/08/09 04:10:12;;;;;;;0.00;0.00;;;;;;;;;;5072736;28;20181;-79
2023/08/09 04:12:38;;;;;;;0.05;0.05;;;;;;;;;;5072940;28;20063;-78
2023/08/09 04:15:04;;;;;;;0.00;0.00;;;;;;;;;;5074361;28;20450;-79
2023/08/09 04:17:31;;;;;;;0.00;0.00;;;;;;;;;;5071529;28;20041;-78
2023/08/09 04:19:57;;;;;;;0.00;0.00;;;;;;;;;;5072620;28;20044;-78
2023/08/09 04:22:24;;;;;;;0.00;0.00;;;;;;;;;;5073904;28;20089;-79
2023/08/09 04:24:51;;;;;;;0.00;0.00;;;;;;;;;;5074238;28;20036;-78
2023/08/09 04:27:17;;;;;;;0.00;0.00;;;;;;;;;;5073753;28;20040;-78
2023/08/09 04:29:44;;;;;;;0.00;0.00;;;;;;;;;;5074098;28;20036;-79
2023/08/09 04:32:10;;;;;;;0.00;0.00;;;;;;;;;;5073803;28;20139;-78
2023/08/09 04:34:36;;;;;;;0.00;0.00;;;;;;;;;;5073886;28;20036;-78
2023/08/09 04:37:02;;;;;;;0.00;0.00;;;;;;;;;;5074058;28;20120;-78
2023/08/09 04:39:28;;;;;;;0.00;0.00;;;;;;;;;;5073627;28;20056;-78
2023/08/09 04:41:54;;;;;;;0.00;0.00;;;;;;;;;;5074019;28;20119;-78
2023/08/09 04:44:20;;;;;;;0.00;0.00;;;;;;;;;;5072231;28;20113;-78
2023/08/09 04:46:46;;;;;;;0.00;0.00;;;;;;;;;;5072206;28;20059;-78
2023/08/09 04:49:12;;;;;;;0.00;0.00;;;;;;;;;;5072161;28;20124;-78
2023/08/09 04:51:38;;;;;;;0.00;0.00;;;;;;;;;;5072173;28;20426;-79
2023/08/09 04:54:05;;;;;;;0.00;0.00;;;;;;;;;;5071914;28;20093;-78
2023/08/09 04:56:31;;;;;;;0.00;0.00;;;;;;;;;;5072187;28;20078;-79
2023/08/09 04:58:57;;;;;;;0.00;0.00;;;;;;;;;;5073079;28;20117;-78
2023/08/09 05:01:23;;;;;;;0.00;0.00;;;;;;;;;;5072042;28;20510;-78
2023/08/09 05:03:49;;;;;;;0.00;0.00;;;;;;;;;;5071720;28;20063;-78
2023/08/09 05:06:15;;;;;;;0.00;0.00;;;;;;;;;;5073368;28;20048;-78
2023/08/09 05:08:41;;;;;;;0.00;0.00;;;;;;;;;;5073109;28;20211;-78
2023/08/09 05:11:07;;;;;;;0.00;0.00;;;;;;;;;;5071653;28;20091;-78
2023/08/09 05:13:33;;;;;;;0.00;0.00;;;;;;;;;;5072971;28;20067;-78
2023/08/09 05:15:59;;;;;;;0.00;0.00;;;;;;;;;;5072098;28;20070;-78
2023/08/09 05:18:26;;;;;;;0.00;0.00;;;;;;;;;;5071442;28;20051;-77
2023/08/09 05:20:52;;;;;;;0.00;0.00;;;;;;;;;;5073024;28;20107;-78
2023/08/09 05:23:18;;;;;;;0.00;0.00;;;;;;;;;;5072812;28;20164;-78
2023/08/09 05:25:44;;;;;;;0.00;0.00;;;;;;;;;;5072811;28;20066;-78
2023/08/09 05:28:10;;;;;;;0.00;0.00;;;;;;;;;;5072304;28;20032;-78
2023/08/09 05:30:36;;;;;;;0.00;0.00;;;;;;;;;;5072834;28;20150;-78
2023/08/09 05:33:02;;;;;;;0.00;0.00;;;;;;;;;;5072703;28;20115;-79
2023/08/09 05:35:29;;;;;;;0.00;0.00;;;;;;;;;;5071402;28;20036;-78
2023/08/09 05:37:55;;;;;;;0.00;0.00;;;;;;;;;;5072608;28;20032;-78
2023/08/09 05:40:21;;;;;;;0.00;0.00;;;;;;;;;;5072581;28;20445;-79
2023/08/09 05:42:47;;;;;;;0.00;0.00;;;;;;;;;;5072734;28;20037;-78
2023/08/09 05:45:13;;;;;;;0.00;0.00;;;;;;;;;;5072527;28;20048;-78
2023/08/09 05:47:39;;;;;;;0.00;0.00;;;;;;;;;;5071229;28;20099;-78
2023/08/09 05:50:05;;;;;;;0.00;0.00;;;;;;;;;;5071042;28;20047;-79
2023/08/09 05:52:31;;;;;;;0.00;0.00;;;;;;;;;;5072392;28;20403;-78
2023/08/09 05:54:57;;;;;;;0.00;0.00;;;;;;;;;;5072287;28;20037;-79
2023/08/09 05:57:23;;;;;;;0.00;0.00;;;;;;;;;;5072358;28;20486;-78
2023/08/09 05:59:49;;;;;;;0.00;0.00;;;;;;;;;;5070943;28;20050;-79
2023/08/09 06:02:15;;;;;;;0.00;0.00;;;;;;;;;;5072583;28;20090;-78
2023/08/09 06:04:43;;;;;;;0.00;0.00;;;;;;;;;;5072263;28;20044;-78
2023/08/09 06:07:09;;;;;;;0.00;0.00;;;;;;;;;;5071206;28;20076;-79
2023/08/09 06:09:35;;;;;;;0.00;0.00;;;;;;;;;;5070638;28;20072;-79
2023/08/09 06:12:04;;;;;;;0.00;0.00;;;;;;;;;;5071459;28;20395;-78
2023/08/09 06:14:30;;;;;;;0.00;0.00;;;;;;;;;;5071964;28;20044;-79
2023/08/09 06:16:57;;;;;;;0.00;0.00;;;;;;;;;;5072651;28;20484;-78
2023/08/09 06:19:23;;;;;;;0.00;0.00;;;;;;;;;;5070764;28;20079;-78
2023/08/09 06:21:49;;;;;;;0.00;0.00;;;;;;;;;;5072317;28;20091;-79
2023/08/09 06:24:15;;;;;;;0.00;0.00;;;;;;;;;;5072082;28;20069;-79
2023/08/09 06:26:41;;;;;;;0.00;0.00;;;;;;;;;;5070830;28;20467;-79
2023/08/09 06:29:09;;;;;;;0.00;0.00;;;;;;;;;;5070296;28;20036;-80
2023/08/09 06:31:34;;;;;;;0.00;0.00;;;;;;;;;;5072209;28;20119;-80
2023/08/09 06:34:01;;;;;;;0.00;0.00;;;;;;;;;;5071884;28;20155;-80
2023/08/09 06:36:27;;;;;;;0.00;0.00;;;;;;;;;;5072320;28;20040;-80
2023/08/09 06:38:53;;;;;;;0.00;0.00;;;;;;;;;;5071881;28;20047;-80
2023/08/09 06:41:19;;;;;;;0.00;0.00;;;;;;;;;;5073023;28;20047;-79
2023/08/09 06:43:45;;;;;;;0.00;0.00;;;;;;;;;;5074724;28;20435;-79
2023/08/09 06:46:11;;;;;;;0.00;0.00;;;;;;;;;;5074672;28;20047;-80
2023/08/09 06:48:37;;;;;;;0.00;0.00;;;;;;;;;;5075508;28;20472;-82
2023/08/09 06:51:03;;;;;;;0.00;0.00;;;;;;;;;;5058199;28;20037;-80
2023/08/09 06:53:29;;;;;;;0.00;0.00;;;;;;;;;;5074850;28;20040;-84
2023/08/09 06:55:55;;;;;;;0.00;0.00;;;;;;;;;;5074223;28;20040;-77
2023/08/09 06:58:21;;;;;;;0.00;0.00;;;;;;;;;;5075694;28;20115;-77
2023/08/09 07:00:47;;;;;;;0.00;0.00;;;;;;;;;;5075478;28;20045;-80
2023/08/09 07:03:14;;;;;;;0.00;0.00;;;;;;;;;;5075596;28;20084;-79
2023/08/09 07:05:41;;;;;;;0.00;0.00;;;;;;;;;;5075229;28;20474;-80
2023/08/09 07:08:07;;;;;;;0.00;0.00;;;;;;;;;;5075527;28;20036;-79
2023/08/09 07:10:33;;;;;;;0.00;0.00;;;;;;;;;;5075018;28;20131;-81
2023/08/09 07:12:59;;;;;;;0.00;0.00;;;;;;;;;;5075309;28;20118;-79
2023/08/09 07:15:26;;;;;;;0.00;0.00;;;;;;;;;;5057102;28;20046;-80
2023/08/09 07:17:52;;;;;;;0.00;0.00;;;;;;;;;;5074167;28;20372;-79
2023/08/09 07:20:18;;;;;;;0.00;0.00;;;;;;;;;;5073678;28;20518;-79
2023/08/09 07:22:45;;;;;;;0.00;0.00;;;;;;;;;;5073853;28;20129;-80
2023/08/09 07:25:11;;;;;;;0.00;0.00;;;;;;;;;;5074961;28;20116;-80
2023/08/09 07:27:41;;;;;;;0.00;0.00;;;;;;;;;;5075422;28;20570;-84
2023/08/09 07:30:09;;;;;;;0.00;0.00;;;;;;;;;;5073898;28;20072;-80
2023/08/09 07:32:37;;;;;;;0.00;0.00;;;;;;;;;;5057817;28;20375;-80
2023/08/09 07:35:04;;;;;;;0.00;0.00;;;;;;;;;;5073908;28;20045;-80
2023/08/09 07:37:30;;;;;;;0.00;0.00;;;;;;;;;;5073878;28;20102;-80
2023/08/09 07:39:57;;;;;;;0.00;0.00;;;;;;;;;;5074861;28;20037;-80
2023/08/09 07:42:23;;;;;;;0.00;0.00;;;;;;;;;;5073487;28;20045;-80
2023/08/09 07:44:49;;;;;;;0.00;0.00;;;;;;;;;;5073366;28;20039;-80
2023/08/09 07:47:14;;;;;;;0.00;0.00;;;;;;;;;;5073636;28;20105;-80
2023/08/09 07:49:40;;;;;;;0.00;0.00;;;;;;;;;;5074608;28;20398;-80
2023/08/09 07:52:06;;;;;;;0.00;0.00;;;;;;;;;;5074454;28;20043;-80
2023/08/09 07:54:32;;;;;;;0.00;0.00;;;;;;;;;;5074424;28;20139;-80
2023/08/09 07:56:58;;;;;;;0.00;0.00;;;;;;;;;;5073423;28;20399;-80
2023/08/09 07:59:24;;;;;;;0.00;0.00;;;;;;;;;;5074255;28;20083;-80
2023/08/09 08:01:50;;;;;;;0.00;0.00;;;;;;;;;;5074618;28;20095;-79
2023/08/09 08:04:16;;;;;;;0.00;0.00;;;;;;;;;;5073278;28;20047;-80
2023/08/09 08:06:42;;;;;;;0.00;0.00;;;;;;;;;;5073329;28;20051;-79
2023/08/09 08:09:12;;;;;;;0.00;0.00;;;;;;;;;;5072760;28;20403;-87
2023/08/09 08:11:39;;;;;;;0.00;0.00;;;;;;;;;;5073096;28;20080;-81
2023/08/09 08:14:05;;;;;;;0.00;0.00;;;;;;;;;;5074471;28;20433;-80
2023/08/09 08:16:31;;;;;;;0.00;0.00;;;;;;;;;;5072849;28;20060;-80
2023/08/09 08:18:57;;;;;;;0.00;0.00;;;;;;;;;;5074203;28;20036;-80
2023/08/09 08:21:23;;;;;;;0.00;0.00;;;;;;;;;;5072443;28;20043;-80
2023/08/09 08:23:49;;;;;;;0.00;0.00;;;;;;;;;;5074094;28;20407;-81
2023/08/09 08:26:15;;;;;;;0.00;0.00;;;;;;;;;;5073986;28;20072;-81
2023/08/09 08:28:41;;;;;;;0.00;0.00;;;;;;;;;;5056167;28;20499;-80
2023/08/09 08:31:07;;;;;;;0.00;0.00;;;;;;;;;;5073774;28;20487;-80
2023/08/09 08:33:34;;;;;;;0.00;0.00;;;;;;;;;;5073942;28;20376;-82
2023/08/09 08:36:00;;;;;;;0.00;0.00;;;;;;;;;;5072258;28;20055;-81
2023/08/09 08:38:26;;;;;;;0.00;0.00;;;;;;;;;;5074301;28;20088;-79
2023/08/09 08:40:54;;;;;;;0.00;0.00;;;;;;;;;;5074869;28;20115;-80
2023/08/09 08:43:20;;;;;;;0.00;0.00;;;;;;;;;;5073761;28;20045;-80
2023/08/09 08:45:50;;;;;;;0.00;0.00;;;;;;;;;;5072367;28;20040;-80
2023/08/09 08:48:16;;;;;;;0.00;0.00;;;;;;;;;;5073696;28;20043;-80
2023/08/09 08:50:42;;;;;;;0.00;0.00;;;;;;;;;;5071936;28;20094;-81
2023/08/09 08:53:10;;;;;;;0.00;0.00;;;;;;;;;;5073651;28;20050;-80
2023/08/09 08:55:36;;;;;;;0.00;0.00;;;;;;;;;;5073218;28;20060;-80
2023/08/09 08:58:03;;;;;;;0.00;0.00;;;;;;;;;;5073339;28;20040;-81
2023/08/09 09:00:29;;;;;;;0.00;0.00;;;;;;;;;;5055370;28;20040;-81
2023/08/09 09:02:56;;;;;;;0.00;0.00;;;;;;;;;;5072838;28;20431;-81
2023/08/09 09:05:23;;;;;;;0.00;0.00;;;;;;;;;;5071630;28;20510;-82
2023/08/09 09:07:54;;;;;;;0.00;0.00;;;;;;;;;;5071901;28;20321;-83
2023/08/09 09:10:20;;;;;;;0.00;0.00;;;;;;;;;;5072831;28;20075;-82
2023/08/09 09:12:49;;;;;;;0.00;0.00;;;;;;;;;;5073600;28;20040;-82
2023/08/09 09:15:15;;;;;;;0.00;0.00;;;;;;;;;;5072934;28;20549;-81
2023/08/09 09:17:45;;;;;;;0.00;0.00;;;;;;;;;;5071858;28;20079;-83
2023/08/09 09:20:23;;;;;;;0.00;0.00;;;;;;;;;;5072848;28;20047;-82
2023/08/09 09:22:49;;;;;;;0.00;0.00;;;;;;;;;;5072115;28;20048;-82
2023/08/09 09:25:17;;;;;;;0.00;0.00;;;;;;;;;;5072970;28;20116;-87
2023/08/09 09:27:47;;;;;;;0.00;0.00;;;;;;;;;;5073203;28;20040;-82
2023/08/09 09:30:13;;;;;;;0.00;0.00;;;;;;;;;;5072744;28;20047;-82
2023/08/09 09:33:00;;;;;;;0.00;0.00;;;;;;;;;;5072931;28;20135;-82
2023/08/09 09:35:27;;;;;;;0.00;0.00;;;;;;;;;;5071345;28;20047;-90
2023/08/09 09:37:54;;;;;;;0.00;0.00;;;;;;;;;;5072797;28;20044;-81
2023/08/09 09:40:29;;;;;;;0.00;0.00;;;;;;;;;;5072536;28;20033;-80
2023/08/09 09:42:56;;;;;;;0.00;0.00;;;;;;;;;;5071042;28;20073;-81
2023/08/09 09:45:23;;;;;;;0.00;0.00;;;;;;;;;;5071164;28;20506;-81
2023/08/09 09:47:51;;;;;;;0.00;0.00;;;;;;;;;;5071127;28;20086;-80
2023/08/09 09:50:18;;;;;;;0.00;0.00;;;;;;;;;;5071105;28;20052;-80
2023/08/09 09:52:46;;;;;;;0.00;0.00;;;;;;;;;;5070881;28;20049;-81
2023/08/09 09:55:13;;;;;;;0.00;0.00;;;;;;;;;;5072232;28;20127;-81
2023/08/09 09:57:39;;;;;;;0.00;0.00;;;;;;;;;;5070545;28;20048;-81
2023/08/09 10:00:20;;;;;;;0.00;0.00;;;;;;;;;;5072121;28;20395;-80
2023/08/09 10:02:47;;;;;;;0.00;0.00;;;;;;;;;;5072080;28;20044;-81
2023/08/09 10:05:15;;;;;;;0.00;0.00;;;;;;;;;;5070726;28;20139;-81
2023/08/09 10:07:42;;;;;;;0.00;0.00;;;;;;;;;;5070465;28;20047;-82
2023/08/09 10:10:08;;;;;;;0.00;0.00;;;;;;;;;;5072079;28;20391;-82
2023/08/09 10:12:35;;;;;;;0.00;0.00;;;;;;;;;;5072207;28;20126;-82
2023/08/09 10:15:02;;;;;;;0.00;0.00;;;;;;;;;;5073303;28;20383;-82
2023/08/09 10:17:32;;;;;;;0.00;0.00;;;;;;;;;;5075228;28;20375;-81
2023/08/09 10:19:59;;;;;;;0.00;0.00;;;;;;;;;;5076186;28;20123;-82
2023/08/09 10:22:26;;;;;;;0.00;0.00;;;;;;;;;;5075860;28;20072;-85
2023/08/09 10:24:56;;;;;;;0.00;0.00;;;;;;;;;;5076286;28;20040;-79
2023/08/09 10:27:40;;;;;;;0.00;0.00;;;;;;;;;;5075958;28;20044;-79
2023/08/09 10:30:09;;;;;;;0.00;0.00;;;;;;;;;;5076060;28;20479;-79
2023/08/09 10:32:48;;;;;;;0.00;0.00;;;;;;;;;;5075719;28;20044;-79
2023/08/09 10:35:19;;;;;;;0.00;0.00;;;;;;;;;;5076041;28;20041;-80
2023/08/09 10:37:45;;;;;;;0.00;0.00;;;;;;;;;;5075550;28;20440;-80
2023/08/09 10:40:16;;;;;;;0.00;0.00;;;;;;;;;;5074383;28;20123;-80
2023/08/09 10:42:44;;;;;;;0.00;0.00;;;;;;;;;;5075771;28;20102;-80
2023/08/09 10:45:12;;;;;;;0.00;0.00;;;;;;;;;;5074312;28;20032;-77
2023/08/09 10:47:40;;;;;;;0.00;0.00;;;;;;;;;;5073961;28;20040;-78
2023/08/09 10:50:06;;;;;;;0.00;0.00;;;;;;;;;;5075396;28;20482;-78
2023/08/09 10:52:32;;;;;;;0.00;0.00;;;;;;;;;;5074046;28;20414;-77
2023/08/09 10:55:17;;;;;;;0.00;0.00;;;;;;;;;;5075462;28;20036;-77
2023/08/09 10:57:43;;;;;;;0.00;0.00;;;;;;;;;;5075099;28;20367;-77
2023/08/09 11:00:12;;;;;;;0.00;0.00;;;;;;;;;;5073932;28;20048;-77
2023/08/09 11:02:48;;;;;;;0.00;0.00;;;;;;;;;;5073739;28;20049;-78
2023/08/09 11:05:14;;;;;;;0.00;0.00;;;;;;;;;;5074272;28;20044;-77
2023/08/09 11:07:51;;;;;;;0.00;0.00;;;;;;;;;;5074995;28;20059;-77
2023/08/09 11:10:31;;;;;;;0.00;0.00;;;;;;;;;;5074890;28;20140;-78
2023/08/09 11:12:57;;;;;;;0.00;0.00;;;;;;;;;;5073839;28;20047;-77
2023/08/09 11:15:23;;;;;;;0.00;0.00;;;;;;;;;;5075050;28;20049;-76
2023/08/09 11:17:49;;;;;;;0.00;0.00;;;;;;;;;;5073570;28;20037;-77
2023/08/09 11:20:16;;;;;;;0.00;0.00;;;;;;;;;;5075209;28;20040;-77
2023/08/09 11:22:59;;;;;;;0.00;0.00;;;;;;;;;;5073449;28;20521;-77
2023/08/09 11:25:25;;;;;;;0.00;0.00;;;;;;;;;;5075201;28;20459;-78
2023/08/09 11:27:52;;;;;;;0.00;0.00;;;;;;;;;;5074055;28;20399;-77
2023/08/09 11:30:18;;;;;;;0.00;0.00;;;;;;;;;;5075032;28;20185;-79
2023/08/09 11:32:44;;;;;;;0.00;0.00;;;;;;;;;;5073327;28;20052;-78
2023/08/09 11:35:10;;;;;;;0.00;0.00;;;;;;;;;;5074697;28;20046;-79
2023/08/09 11:37:36;;;;;;;0.00;0.00;;;;;;;;;;5073457;28;20055;-78
2023/08/09 11:40:04;;;;;;;0.00;0.00;;;;;;;;;;5073587;28;20048;-79
2023/08/09 11:42:29;;;;;;;0.00;0.00;;;;;;;;;;5056424;28;20124;-80
2023/08/09 11:44:55;;;;;;;0.00;0.00;;;;;;;;;;5074994;28;20064;-79
2023/08/09 11:47:26;;;;;;;0.00;0.00;;;;;;;;;;5074656;28;20057;-82
2023/08/09 11:49:52;;;;;;;0.00;0.00;;;;;;;;;;5073459;28;20055;-79
2023/08/09 11:52:18;;;;;;;0.00;0.00;;;;;;;;;;5073595;28;20058;-80
2023/08/09 11:54:45;;;;;;;0.00;0.00;;;;;;;;;;5074792;28;20063;-79
2023/08/09 11:57:11;;;;;;;0.00;0.00;;;;;;;;;;5074455;28;20116;-79
2023/08/09 11:59:39;;;;;;;0.00;0.00;;;;;;;;;;5073398;28;20044;-79
2023/08/09 12:02:06;;;;;;;0.00;0.00;;;;;;;;;;5072979;28;20041;-79
2023/08/09 12:04:32;;;;;;;0.00;0.00;;;;;;;;;;5074237;28;20124;-79
2023/08/09 12:07:01;;;;;;;0.00;0.00;;;;;;;;;;5074030;28;20126;-78
2023/08/09 12:09:30;;;;;;;0.00;0.00;;;;;;;;;;5073036;28;20057;-79
2023/08/09 12:11:58;;;;;;;0.00;0.00;;;;;;;;;;5074307;28;20048;-79
2023/08/09 12:14:24;;;;;;;0.00;0.00;;;;;;;;;;5074275;28;20119;-79
2023/08/09 12:16:50;;;;;;;0.00;0.00;;;;;;;;;;5073284;28;20072;-79
2023/08/09 12:19:16;;;;;;;0.00;0.00;;;;;;;;;;5074268;28;20036;-79
2023/08/09 12:21:42;;;;;;;0.00;0.00;;;;;;;;;;5073042;28;20477;-78
2023/08/09 12:24:08;;;;;;;0.00;0.00;;;;;;;;;;5074439;28;20033;-78
2023/08/09 12:26:34;;;;;;;0.00;0.00;;;;;;;;;;5073459;28;20041;-78
2023/08/09 12:29:00;;;;;;;0.00;0.00;;;;;;;;;;5072904;28;20417;-78
2023/08/09 12:31:26;;;;;;;0.00;0.00;;;;;;;;;;5074031;28;20043;-77
2023/08/09 12:33:53;;;;;;;0.00;0.00;;;;;;;;;;5072314;28;20403;-79
2023/08/09 12:36:19;;;;;;;0.00;0.00;;;;;;;;;;5072787;28;20055;-79
2023/08/09 12:38:45;;;;;;;0.00;0.00;;;;;;;;;;5071686;28;20076;-79
2023/08/09 12:41:11;;;;;;;0.00;0.00;;;;;;;;;;5073748;28;20468;-80
2023/08/09 12:43:37;;;;;;;0.00;0.00;;;;;;;;;;5072024;28;20048;-79
2023/08/09 12:46:03;;;;;;;0.00;0.00;;;;;;;;;;5072462;28;20062;-79
2023/08/09 12:48:29;;;;;;;0.00;0.00;;;;;;;;;;5073595;28;20044;-79
2023/08/09 12:50:55;;;;;;;0.00;0.00;;;;;;;;;;5073542;28;20032;-78
2023/08/09 12:53:21;;;;;;;0.00;0.00;;;;;;;;;;5072260;28;20174;-77
2023/08/09 12:55:47;;;;;;;0.00;0.00;;;;;;;;;;5073541;28;20486;-78
2023/08/09 12:58:13;;;;;;;0.00;0.00;;;;;;;;;;5072067;28;20051;-78
2023/08/09 13:00:39;;;;;;;0.00;0.00;;;;;;;;;;5071973;28;20475;-78
2023/08/09 13:03:07;;;;;;;0.00;0.00;;;;;;;;;;5071681;28;20051;-78
2023/08/09 13:05:34;;;;;;;0.00;0.00;;;;;;;;;;5072238;28;20115;-79
2023/08/09 13:08:00;;;;;;;0.00;0.00;;;;;;;;;;5055070;28;20037;-78
2023/08/09 13:10:26;;;;;;;0.00;0.00;;;;;;;;;;5072911;28;20057;-78
2023/08/09 13:12:52;;;;;;;0.00;0.00;;;;;;;;;;5072984;28;20418;-78
2023/08/09 13:15:18;;;;;;;0.00;0.00;;;;;;;;;;5071631;28;20048;-78
2023/08/09 13:17:44;;;;;;;0.00;0.00;;;;;;;;;;5072992;28;20036;-77
2023/08/09 13:20:12;;;;;;;0.00;0.00;;;;;;;;;;5073097;28;20076;-78
2023/08/09 13:22:39;;;;;;;0.00;0.00;;;;;;;;;;5071191;28;20056;-78
2023/08/09 13:25:07;;;;;;;0.00;0.00;;;;;;;;;;5071899;28;20121;-78
2023/08/09 13:27:34;;;;;;;0.00;0.00;;;;;;;;;;5071684;28;20036;-78
2023/08/09 13:30:00;;;;;;;0.00;0.00;;;;;;;;;;5071377;28;20036;-78
2023/08/09 13:32:26;;;;;;;0.00;0.00;;;;;;;;;;5071489;28;20048;-78
2023/08/09 13:34:53;;;;;;;0.00;0.00;;;;;;;;;;5071194;28;20047;-78
2023/08/09 13:37:19;;;;;;;0.00;0.00;;;;;;;;;;5072805;28;20041;-78
2023/08/09 13:39:44;;;;;;;0.00;0.00;;;;;;;;;;5071023;28;20041;-78
2023/08/09 13:42:10;;;;;;;0.00;0.00;;;;;;;;;;5071160;28;20119;-79
2023/08/09 13:44:36;;;;;;;0.00;0.00;;;;;;;;;;5072567;28;20036;-78
2023/08/09 13:47:03;;;;;;;0.00;0.00;;;;;;;;;;5054777;28;20154;-78
2023/08/09 13:49:28;;;;;;;0.00;0.00;;;;;;;;;;5071989;28;20493;-78
2023/08/09 13:51:54;;;;;;;0.00;0.00;;;;;;;;;;5071275;28;20075;-78
2023/08/09 13:54:20;;;;;;;0.00;0.00;;;;;;;;;;5070687;28;20036;-79
2023/08/09 13:56:46;;;;;;;0.00;0.00;;;;;;;;;;5071503;28;20045;-78
2023/08/09 13:59:12;;;;;;;0.00;0.00;;;;;;;;;;5072014;28;20041;-78
2023/08/09 14:01:39;;;;;;;0.00;0.00;;;;;;;;;;5071042;28;20076;-78
2023/08/09 14:04:05;;;;;;;0.00;0.00;;;;;;;;;;5072295;28;20070;-78
2023/08/09 14:06:32;;;;;;;0.00;0.00;;;;;;;;;;5072367;28;20037;-78
2023/08/09 14:08:58;;;;;;;0.00;0.00;;;;;;;;;;5070944;28;20040;-78
2023/08/09 14:11:24;;;;;;;0.00;0.00;;;;;;;;;;5072211;28;20080;-79
2023/08/09 14:13:50;;;;;;;0.00;0.00;;;;;;;;;;5072173;28;20562;-79
2023/08/09 14:16:16;;;;;;;0.00;0.00;;;;;;;;;;5072427;28;20134;-79
2023/08/09 14:18:42;;;;;;;0.00;0.00;;;;;;;;;;5072164;28;20364;-78
2023/08/09 14:21:09;;;;;;;0.00;0.00;;;;;;;;;;5072280;28;20045;-78
2023/08/09 14:23:35;;;;;;;0.00;0.00;;;;;;;;;;5070467;28;20127;-78
2023/08/09 14:26:01;;;;;;;0.00;0.00;;;;;;;;;;5072054;28;20040;-78
2023/08/09 14:28:28;;;;;;;0.00;0.00;;;;;;;;;;5070417;28;20087;-78
2023/08/09 14:30:54;;;;;;;0.00;0.00;;;;;;;;;;5072019;28;20036;-78
2023/08/09 14:33:20;;;;;;;0.00;0.00;;;;;;;;;;5071872;28;20040;-78
2023/08/09 14:35:46;;;;;;;0.00;0.00;;;;;;;;;;5072085;28;20047;-78
2023/08/09 14:38:15;;;;;;;0.00;0.00;;;;;;;;;;5072024;28;20080;-78
2023/08/09 14:40:41;;;;;;;0.00;0.00;;;;;;;;;;5053834;28;20052;-78